sensor_id;sensor_type;location;lat;lon;timestamp;P1;durP1;ratioP1;P2;durP2;ratioP2
18947;SDS011;9607;51.600;7.558;2023-08-06T00:00:49;20.23;;;15.52;;
18947;SDS011;9607;51.600;7.558;2023-08-06T00:03:16;17.00;;;13.50;;
18947;SDS011;9607;51.600;7.558;2023-08-06T00:05:43;17.17;;;13.00;;
18947;SDS011;9607;51.600;7.558;2023-08-06T00:08:10;19.75;;;13.57;;
18947;SDS011;9607;51.600;7.558;2023-08-06T00:10:38;13.77;;;10.65;;
18947;SDS011;9607;51.600;7.558;2023-08-06T00:13:06;12.88;;;9.63;;
18947;SDS011;9607;51.600;7.558;2023-08-06T00:15:33;9.10;;;8.10;;
18947;SDS011;9607;51.600;7.558;2023-08-06T00:17:59;8.90;;;7.10;;
18947;SDS011;9607;51.600;7.558;2023-08-06T00:20:26;8.55;;;7.70;;
18947;SDS011;9607;51.600;7.558;2023-08-06T00:22:53;11.52;;;8.82;;
18947;SDS011;9607;51.600;7.558;2023-08-06T00:25:20;11.88;;;10.25;;
18947;SDS011;9607;51.600;7.558;2023-08-06T00:27:48;12.95;;;9.57;;
18947;SDS011;9607;51.600;7.558;2023-08-06T00:30:15;10.00;;;8.48;;
18947;SDS011;9607;51.600;7.558;2023-08-06T00:32:42;8.95;;;7.90;;
18947;SDS011;9607;51.600;7.558;2023-08-06T00:35:09;7.20;;;6.50;;
18947;SDS011;9607;51.600;7.558;2023-08-06T00:37:36;6.10;;;5.50;;
18947;SDS011;9607;51.600;7.558;2023-08-06T00:40:03;7.88;;;7.05;;
18947;SDS011;9607;51.600;7.558;2023-08-06T00:42:30;5.68;;;5.18;;
18947;SDS011;9607;51.600;7.558;2023-08-06T00:44:58;5.57;;;5.07;;
18947;SDS011;9607;51.600;7.558;2023-08-06T00:47:25;9.23;;;6.13;;
18947;SDS011;9607;51.600;7.558;2023-08-06T00:49:52;8.55;;;7.28;;
18947;SDS011;9607;51.600;7.558;2023-08-06T00:52:20;8.93;;;6.95;;
18947;SDS011;9607;51.600;7.558;2023-08-06T00:54:47;10.80;;;7.68;;
18947;SDS011;9607;51.600;7.558;2023-08-06T00:57:13;10.90;;;8.90;;
18947;SDS011;9607;51.600;7.558;2023-08-06T00:59:40;9.35;;;7.57;;
18947;SDS011;9607;51.600;7.558;2023-08-06T01:02:09;7.30;;;6.60;;
18947;SDS011;9607;51.600;7.558;2023-08-06T01:04:35;6.82;;;6.13;;
18947;SDS011;9607;51.600;7.558;2023-08-06T01:07:05;6.68;;;6.07;;
18947;SDS011;9607;51.600;7.558;2023-08-06T01:09:43;6.53;;;5.93;;
18947;SDS011;9607;51.600;7.558;2023-08-06T01:12:16;5.97;;;5.38;;
18947;SDS011;9607;51.600;7.558;2023-08-06T01:14:52;5.53;;;5.03;;
18947;SDS011;9607;51.600;7.558;2023-08-06T01:17:27;5.10;;;4.63;;
18947;SDS011;9607;51.600;7.558;2023-08-06T01:19:55;5.47;;;4.97;;
18947;SDS011;9607;51.600;7.558;2023-08-06T01:22:23;11.00;;;8.18;;
18947;SDS011;9607;51.600;7.558;2023-08-06T01:24:50;16.55;;;12.07;;
18947;SDS011;9607;51.600;7.558;2023-08-06T01:27:20;10.88;;;8.68;;
18947;SDS011;9607;51.600;7.558;2023-08-06T01:29:56;11.10;;;8.73;;
18947;SDS011;9607;51.600;7.558;2023-08-06T01:32:27;9.68;;;8.68;;
18947;SDS011;9607;51.600;7.558;2023-08-06T01:34:58;12.02;;;9.10;;
18947;SDS011;9607;51.600;7.558;2023-08-06T01:37:28;12.68;;;9.65;;
18947;SDS011;9607;51.600;7.558;2023-08-06T01:39:56;11.77;;;8.25;;
18947;SDS011;9607;51.600;7.558;2023-08-06T01:42:23;11.80;;;8.55;;
18947;SDS011;9607;51.600;7.558;2023-08-06T01:44:50;7.40;;;6.70;;
18947;SDS011;9607;51.600;7.558;2023-08-06T01:47:17;8.85;;;7.20;;
18947;SDS011;9607;51.600;7.558;2023-08-06T01:49:44;8.80;;;7.38;;
18947;SDS011;9607;51.600;7.558;2023-08-06T01:52:10;7.35;;;6.55;;
18947;SDS011;9607;51.600;7.558;2023-08-06T01:54:38;6.22;;;5.63;;
18947;SDS011;9607;51.600;7.558;2023-08-06T01:57:05;9.52;;;5.88;;
18947;SDS011;9607;51.600;7.558;2023-08-06T01:59:32;5.32;;;4.82;;
18947;SDS011;9607;51.600;7.558;2023-08-06T02:01:59;4.72;;;4.32;;
18947;SDS011;9607;51.600;7.558;2023-08-06T02:04:26;4.03;;;3.72;;
18947;SDS011;9607;51.600;7.558;2023-08-06T02:06:53;4.20;;;3.90;;
18947;SDS011;9607;51.600;7.558;2023-08-06T02:09:19;5.65;;;4.97;;
18947;SDS011;9607;51.600;7.558;2023-08-06T02:11:48;4.85;;;4.35;;
18947;SDS011;9607;51.600;7.558;2023-08-06T02:14:14;4.53;;;3.95;;
18947;SDS011;9607;51.600;7.558;2023-08-06T02:16:41;3.95;;;3.65;;
18947;SDS011;9607;51.600;7.558;2023-08-06T02:19:08;3.95;;;3.55;;
18947;SDS011;9607;51.600;7.558;2023-08-06T02:21:35;3.60;;;3.30;;
18947;SDS011;9607;51.600;7.558;2023-08-06T02:24:02;3.60;;;3.30;;
18947;SDS011;9607;51.600;7.558;2023-08-06T02:26:29;3.42;;;3.13;;
18947;SDS011;9607;51.600;7.558;2023-08-06T02:28:57;3.30;;;3.00;;
18947;SDS011;9607;51.600;7.558;2023-08-06T02:31:24;4.40;;;4.00;;
18947;SDS011;9607;51.600;7.558;2023-08-06T02:33:51;5.55;;;3.78;;
18947;SDS011;9607;51.600;7.558;2023-08-06T02:36:18;7.70;;;5.97;;
18947;SDS011;9607;51.600;7.558;2023-08-06T02:38:45;5.53;;;4.30;;
18947;SDS011;9607;51.600;7.558;2023-08-06T02:41:13;4.70;;;4.30;;
18947;SDS011;9607;51.600;7.558;2023-08-06T02:43:40;4.20;;;3.80;;
18947;SDS011;9607;51.600;7.558;2023-08-06T02:46:08;4.13;;;3.70;;
18947;SDS011;9607;51.600;7.558;2023-08-06T02:48:35;3.80;;;3.50;;
18947;SDS011;9607;51.600;7.558;2023-08-06T02:51:02;3.58;;;3.28;;
18947;SDS011;9607;51.600;7.558;2023-08-06T02:53:28;3.10;;;2.90;;
18947;SDS011;9607;51.600;7.558;2023-08-06T02:55:56;3.22;;;2.92;;
18947;SDS011;9607;51.600;7.558;2023-08-06T02:58:23;3.55;;;3.22;;
18947;SDS011;9607;51.600;7.558;2023-08-06T03:01:00;4.03;;;3.70;;
18947;SDS011;9607;51.600;7.558;2023-08-06T03:03:29;3.20;;;3.00;;
18947;SDS011;9607;51.600;7.558;2023-08-06T03:05:56;3.08;;;2.80;;
18947;SDS011;9607;51.600;7.558;2023-08-06T03:08:23;3.20;;;2.95;;
18947;SDS011;9607;51.600;7.558;2023-08-06T03:10:48;3.40;;;3.10;;
18947;SDS011;9607;51.600;7.558;2023-08-06T03:13:16;3.38;;;3.08;;
18947;SDS011;9607;51.600;7.558;2023-08-06T03:15:43;5.18;;;4.68;;
18947;SDS011;9607;51.600;7.558;2023-08-06T03:18:10;6.45;;;5.75;;
18947;SDS011;9607;51.600;7.558;2023-08-06T03:20:38;6.10;;;5.60;;
18947;SDS011;9607;51.600;7.558;2023-08-06T03:23:04;6.03;;;5.15;;
18947;SDS011;9607;51.600;7.558;2023-08-06T03:25:34;5.00;;;4.50;;
18947;SDS011;9607;51.600;7.558;2023-08-06T03:28:01;4.72;;;4.32;;
18947;SDS011;9607;51.600;7.558;2023-08-06T03:30:28;4.38;;;3.97;;
18947;SDS011;9607;51.600;7.558;2023-08-06T03:32:56;4.72;;;4.32;;
18947;SDS011;9607;51.600;7.558;2023-08-06T03:35:23;4.78;;;4.38;;
18947;SDS011;9607;51.600;7.558;2023-08-06T03:37:51;4.47;;;4.07;;
18947;SDS011;9607;51.600;7.558;2023-08-06T03:40:18;4.43;;;4.03;;
18947;SDS011;9607;51.600;7.558;2023-08-06T03:42:45;3.92;;;3.63;;
18947;SDS011;9607;51.600;7.558;2023-08-06T03:45:12;4.57;;;4.18;;
18947;SDS011;9607;51.600;7.558;2023-08-06T03:47:38;5.45;;;4.93;;
18947;SDS011;9607;51.600;7.558;2023-08-06T03:50:05;6.03;;;5.43;;
18947;SDS011;9607;51.600;7.558;2023-08-06T03:52:33;6.35;;;5.70;;
18947;SDS011;9607;51.600;7.558;2023-08-06T03:55:01;7.07;;;6.00;;
18947;SDS011;9607;51.600;7.558;2023-08-06T03:57:28;8.32;;;6.43;;
18947;SDS011;9607;51.600;7.558;2023-08-06T03:59:55;8.52;;;6.90;;
18947;SDS011;9607;51.600;7.558;2023-08-06T04:02:21;14.00;;;8.80;;
18947;SDS011;9607;51.600;7.558;2023-08-06T04:04:48;13.18;;;8.60;;
18947;SDS011;9607;51.600;7.558;2023-08-06T04:07:15;13.48;;;8.10;;
18947;SDS011;9607;51.600;7.558;2023-08-06T04:09:55;10.13;;;8.73;;
18947;SDS011;9607;51.600;7.558;2023-08-06T04:12:24;12.13;;;9.77;;
18947;SDS011;9607;51.600;7.558;2023-08-06T04:14:51;14.52;;;9.48;;
18947;SDS011;9607;51.600;7.558;2023-08-06T04:17:19;18.88;;;10.73;;
18947;SDS011;9607;51.600;7.558;2023-08-06T04:19:47;12.90;;;9.43;;
18947;SDS011;9607;51.600;7.558;2023-08-06T04:22:14;13.50;;;10.27;;
18947;SDS011;9607;51.600;7.558;2023-08-06T04:24:41;12.07;;;8.68;;
18947;SDS011;9607;51.600;7.558;2023-08-06T04:27:09;14.13;;;9.88;;
18947;SDS011;9607;51.600;7.558;2023-08-06T04:29:37;10.90;;;8.75;;
18947;SDS011;9607;51.600;7.558;2023-08-06T04:32:05;9.32;;;8.43;;
18947;SDS011;9607;51.600;7.558;2023-08-06T04:34:33;9.55;;;7.57;;
18947;SDS011;9607;51.600;7.558;2023-08-06T04:37:00;7.35;;;6.35;;
18947;SDS011;9607;51.600;7.558;2023-08-06T04:39:28;6.97;;;6.00;;
18947;SDS011;9607;51.600;7.558;2023-08-06T04:41:55;5.53;;;5.05;;
18947;SDS011;9607;51.600;7.558;2023-08-06T04:44:22;5.50;;;5.00;;
18947;SDS011;9607;51.600;7.558;2023-08-06T04:46:51;4.90;;;4.40;;
18947;SDS011;9607;51.600;7.558;2023-08-06T04:49:18;5.28;;;4.78;;
18947;SDS011;9607;51.600;7.558;2023-08-06T04:51:45;4.63;;;4.22;;
18947;SDS011;9607;51.600;7.558;2023-08-06T04:54:12;4.32;;;3.97;;
18947;SDS011;9607;51.600;7.558;2023-08-06T04:56:38;3.58;;;3.28;;
18947;SDS011;9607;51.600;7.558;2023-08-06T04:59:05;3.55;;;3.25;;
18947;SDS011;9607;51.600;7.558;2023-08-06T05:01:32;3.95;;;3.58;;
18947;SDS011;9607;51.600;7.558;2023-08-06T05:04:00;5.07;;;4.57;;
18947;SDS011;9607;51.600;7.558;2023-08-06T05:06:27;4.68;;;4.18;;
18947;SDS011;9607;51.600;7.558;2023-08-06T05:08:54;5.82;;;4.30;;
18947;SDS011;9607;51.600;7.558;2023-08-06T05:11:21;4.95;;;4.45;;
18947;SDS011;9607;51.600;7.558;2023-08-06T05:13:49;4.85;;;4.45;;
18947;SDS011;9607;51.600;7.558;2023-08-06T05:16:15;5.60;;;5.10;;
18947;SDS011;9607;51.600;7.558;2023-08-06T05:18:42;5.10;;;4.60;;
18947;SDS011;9607;51.600;7.558;2023-08-06T05:21:10;6.47;;;5.88;;
18947;SDS011;9607;51.600;7.558;2023-08-06T05:23:37;6.70;;;6.00;;
18947;SDS011;9607;51.600;7.558;2023-08-06T05:26:04;8.23;;;6.28;;
18947;SDS011;9607;51.600;7.558;2023-08-06T05:28:31;5.78;;;5.28;;
18947;SDS011;9607;51.600;7.558;2023-08-06T05:30:58;8.18;;;7.15;;
18947;SDS011;9607;51.600;7.558;2023-08-06T05:33:24;6.68;;;5.97;;
18947;SDS011;9607;51.600;7.558;2023-08-06T05:35:51;6.90;;;6.20;;
18947;SDS011;9607;51.600;7.558;2023-08-06T05:38:19;6.22;;;5.72;;
18947;SDS011;9607;51.600;7.558;2023-08-06T05:40:46;6.60;;;5.90;;
18947;SDS011;9607;51.600;7.558;2023-08-06T05:43:14;9.80;;;6.60;;
18947;SDS011;9607;51.600;7.558;2023-08-06T05:45:43;5.90;;;5.40;;
18947;SDS011;9607;51.600;7.558;2023-08-06T05:48:11;4.55;;;4.15;;
18947;SDS011;9607;51.600;7.558;2023-08-06T05:50:38;4.10;;;3.80;;
18947;SDS011;9607;51.600;7.558;2023-08-06T05:53:05;3.92;;;3.63;;
18947;SDS011;9607;51.600;7.558;2023-08-06T05:55:33;3.47;;;3.17;;
18947;SDS011;9607;51.600;7.558;2023-08-06T05:58:00;4.47;;;3.72;;
18947;SDS011;9607;51.600;7.558;2023-08-06T06:00:27;3.92;;;3.63;;
18947;SDS011;9607;51.600;7.558;2023-08-06T06:02:54;4.10;;;3.58;;
18947;SDS011;9607;51.600;7.558;2023-08-06T06:05:21;4.55;;;4.15;;
18947;SDS011;9607;51.600;7.558;2023-08-06T06:07:48;4.10;;;3.75;;
18947;SDS011;9607;51.600;7.558;2023-08-06T06:10:14;6.00;;;4.43;;
18947;SDS011;9607;51.600;7.558;2023-08-06T06:12:43;4.22;;;3.83;;
18947;SDS011;9607;51.600;7.558;2023-08-06T06:15:10;3.65;;;3.35;;
18947;SDS011;9607;51.600;7.558;2023-08-06T06:17:37;3.35;;;3.05;;
18947;SDS011;9607;51.600;7.558;2023-08-06T06:20:04;2.83;;;2.63;;
18947;SDS011;9607;51.600;7.558;2023-08-06T06:22:32;3.50;;;3.20;;
18947;SDS011;9607;51.600;7.558;2023-08-06T06:24:58;3.10;;;2.90;;
18947;SDS011;9607;51.600;7.558;2023-08-06T06:27:25;3.10;;;2.90;;
18947;SDS011;9607;51.600;7.558;2023-08-06T06:29:53;2.28;;;2.17;;
18947;SDS011;9607;51.600;7.558;2023-08-06T06:32:20;2.88;;;2.67;;
18947;SDS011;9607;51.600;7.558;2023-08-06T06:34:47;2.90;;;2.70;;
18947;SDS011;9607;51.600;7.558;2023-08-06T06:37:14;2.70;;;2.50;;
18947;SDS011;9607;51.600;7.558;2023-08-06T06:39:41;2.40;;;2.20;;
18947;SDS011;9607;51.600;7.558;2023-08-06T06:42:09;2.33;;;2.22;;
18947;SDS011;9607;51.600;7.558;2023-08-06T06:44:36;2.88;;;2.67;;
18947;SDS011;9607;51.600;7.558;2023-08-06T06:47:04;2.30;;;1.98;;
18947;SDS011;9607;51.600;7.558;2023-08-06T06:49:31;2.00;;;1.90;;
18947;SDS011;9607;51.600;7.558;2023-08-06T06:51:57;2.22;;;2.00;;
18947;SDS011;9607;51.600;7.558;2023-08-06T06:54:24;2.03;;;1.92;;
18947;SDS011;9607;51.600;7.558;2023-08-06T06:56:51;2.00;;;1.90;;
18947;SDS011;9607;51.600;7.558;2023-08-06T06:59:18;2.10;;;2.00;;
18947;SDS011;9607;51.600;7.558;2023-08-06T07:01:45;2.35;;;2.15;;
18947;SDS011;9607;51.600;7.558;2023-08-06T07:04:13;1.90;;;1.80;;
18947;SDS011;9607;51.600;7.558;2023-08-06T07:06:40;1.70;;;1.60;;
18947;SDS011;9607;51.600;7.558;2023-08-06T07:09:06;1.70;;;1.60;;
18947;SDS011;9607;51.600;7.558;2023-08-06T07:11:33;2.03;;;1.60;;
18947;SDS011;9607;51.600;7.558;2023-08-06T07:14:00;1.70;;;1.60;;
18947;SDS011;9607;51.600;7.558;2023-08-06T07:16:27;2.35;;;1.38;;
18947;SDS011;9607;51.600;7.558;2023-08-06T07:18:54;1.45;;;1.35;;
18947;SDS011;9607;51.600;7.558;2023-08-06T07:21:22;1.65;;;1.55;;
18947;SDS011;9607;51.600;7.558;2023-08-06T07:23:49;1.88;;;1.77;;
18947;SDS011;9607;51.600;7.558;2023-08-06T07:26:16;1.70;;;1.60;;
18947;SDS011;9607;51.600;7.558;2023-08-06T07:28:43;1.95;;;1.75;;
18947;SDS011;9607;51.600;7.558;2023-08-06T07:31:10;1.80;;;1.70;;
18947;SDS011;9607;51.600;7.558;2023-08-06T07:33:37;1.80;;;1.42;;
18947;SDS011;9607;51.600;7.558;2023-08-06T07:36:07;1.60;;;1.50;;
18947;SDS011;9607;51.600;7.558;2023-08-06T07:38:36;2.03;;;1.85;;
18947;SDS011;9607;51.600;7.558;2023-08-06T07:41:03;1.52;;;1.40;;
18947;SDS011;9607;51.600;7.558;2023-08-06T07:43:30;1.70;;;1.60;;
18947;SDS011;9607;51.600;7.558;2023-08-06T07:45:58;1.77;;;1.67;;
18947;SDS011;9607;51.600;7.558;2023-08-06T07:48:25;2.40;;;1.83;;
18947;SDS011;9607;51.600;7.558;2023-08-06T07:50:53;1.80;;;1.70;;
18947;SDS011;9607;51.600;7.558;2023-08-06T07:53:20;1.60;;;1.50;;
18947;SDS011;9607;51.600;7.558;2023-08-06T07:55:51;1.88;;;1.77;;
18947;SDS011;9607;51.600;7.558;2023-08-06T07:58:20;1.60;;;1.50;;
18947;SDS011;9607;51.600;7.558;2023-08-06T08:00:47;2.13;;;1.52;;
18947;SDS011;9607;51.600;7.558;2023-08-06T08:03:14;2.25;;;1.58;;
18947;SDS011;9607;51.600;7.558;2023-08-06T08:05:42;1.30;;;1.20;;
18947;SDS011;9607;51.600;7.558;2023-08-06T08:08:09;1.48;;;1.38;;
18947;SDS011;9607;51.600;7.558;2023-08-06T08:10:36;1.70;;;1.58;;
18947;SDS011;9607;51.600;7.558;2023-08-06T08:13:05;1.65;;;1.40;;
18947;SDS011;9607;51.600;7.558;2023-08-06T08:15:32;1.70;;;1.42;;
18947;SDS011;9607;51.600;7.558;2023-08-06T08:18:00;1.67;;;1.58;;
18947;SDS011;9607;51.600;7.558;2023-08-06T08:20:26;1.40;;;1.30;;
18947;SDS011;9607;51.600;7.558;2023-08-06T08:22:56;1.50;;;1.40;;
18947;SDS011;9607;51.600;7.558;2023-08-06T08:25:24;1.10;;;1.10;;
18947;SDS011;9607;51.600;7.558;2023-08-06T08:27:51;1.10;;;1.10;;
18947;SDS011;9607;51.600;7.558;2023-08-06T08:30:20;1.20;;;1.10;;
18947;SDS011;9607;51.600;7.558;2023-08-06T08:32:47;2.70;;;1.38;;
18947;SDS011;9607;51.600;7.558;2023-08-06T08:35:14;1.30;;;1.25;;
18947;SDS011;9607;51.600;7.558;2023-08-06T08:37:41;1.27;;;1.10;;
18947;SDS011;9607;51.600;7.558;2023-08-06T08:40:08;1.48;;;1.38;;
18947;SDS011;9607;51.600;7.558;2023-08-06T08:42:36;1.38;;;1.15;;
18947;SDS011;9607;51.600;7.558;2023-08-06T08:45:04;1.20;;;1.10;;
18947;SDS011;9607;51.600;7.558;2023-08-06T08:47:35;2.53;;;1.48;;
18947;SDS011;9607;51.600;7.558;2023-08-06T08:50:03;1.80;;;1.70;;
18947;SDS011;9607;51.600;7.558;2023-08-06T08:52:32;1.92;;;1.73;;
18947;SDS011;9607;51.600;7.558;2023-08-06T08:55:00;1.70;;;1.60;;
18947;SDS011;9607;51.600;7.558;2023-08-06T08:57:28;1.48;;;1.38;;
18947;SDS011;9607;51.600;7.558;2023-08-06T08:59:55;1.75;;;1.50;;
18947;SDS011;9607;51.600;7.558;2023-08-06T09:02:21;2.15;;;1.63;;
18947;SDS011;9607;51.600;7.558;2023-08-06T09:04:55;1.60;;;1.50;;
18947;SDS011;9607;51.600;7.558;2023-08-06T09:07:26;1.50;;;1.40;;
18947;SDS011;9607;51.600;7.558;2023-08-06T09:09:53;2.25;;;1.58;;
18947;SDS011;9607;51.600;7.558;2023-08-06T09:12:22;2.05;;;1.48;;
18947;SDS011;9607;51.600;7.558;2023-08-06T09:14:49;1.85;;;1.70;;
18947;SDS011;9607;51.600;7.558;2023-08-06T09:17:16;3.92;;;1.50;;
18947;SDS011;9607;51.600;7.558;2023-08-06T09:19:44;1.98;;;1.65;;
18947;SDS011;9607;51.600;7.558;2023-08-06T09:22:14;2.78;;;1.73;;
18947;SDS011;9607;51.600;7.558;2023-08-06T09:24:41;2.53;;;1.95;;
18947;SDS011;9607;51.600;7.558;2023-08-06T09:27:12;1.95;;;1.85;;
18947;SDS011;9607;51.600;7.558;2023-08-06T09:29:40;1.98;;;1.80;;
18947;SDS011;9607;51.600;7.558;2023-08-06T09:32:08;2.88;;;2.08;;
18947;SDS011;9607;51.600;7.558;2023-08-06T09:34:35;2.83;;;2.25;;
18947;SDS011;9607;51.600;7.558;2023-08-06T09:37:05;2.38;;;2.17;;
18947;SDS011;9607;51.600;7.558;2023-08-06T09:39:35;3.85;;;2.20;;
18947;SDS011;9607;51.600;7.558;2023-08-06T09:42:04;2.30;;;2.05;;
18947;SDS011;9607;51.600;7.558;2023-08-06T09:44:31;2.85;;;2.55;;
18947;SDS011;9607;51.600;7.558;2023-08-06T09:46:59;1.92;;;1.73;;
18947;SDS011;9607;51.600;7.558;2023-08-06T09:49:27;6.07;;;2.20;;
18947;SDS011;9607;51.600;7.558;2023-08-06T09:52:06;3.50;;;1.90;;
18947;SDS011;9607;51.600;7.558;2023-08-06T09:54:38;5.30;;;2.35;;
18947;SDS011;9607;51.600;7.558;2023-08-06T09:57:05;2.22;;;2.00;;
18947;SDS011;9607;51.600;7.558;2023-08-06T09:59:34;3.25;;;2.53;;
18947;SDS011;9607;51.600;7.558;2023-08-06T10:02:03;2.03;;;1.92;;
18947;SDS011;9607;51.600;7.558;2023-08-06T10:04:37;3.00;;;2.28;;
18947;SDS011;9607;51.600;7.558;2023-08-06T10:07:05;3.35;;;2.08;;
18947;SDS011;9607;51.600;7.558;2023-08-06T10:09:32;2.13;;;1.58;;
18947;SDS011;9607;51.600;7.558;2023-08-06T10:12:00;2.08;;;1.67;;
18947;SDS011;9607;51.600;7.558;2023-08-06T10:14:28;2.30;;;1.67;;
18947;SDS011;9607;51.600;7.558;2023-08-06T10:16:58;1.85;;;1.45;;
18947;SDS011;9607;51.600;7.558;2023-08-06T10:19:25;4.82;;;1.50;;
18947;SDS011;9607;51.600;7.558;2023-08-06T10:22:09;2.13;;;1.42;;
18947;SDS011;9607;51.600;7.558;2023-08-06T10:24:50;2.17;;;1.73;;
18947;SDS011;9607;51.600;7.558;2023-08-06T10:27:23;2.88;;;1.77;;
18947;SDS011;9607;51.600;7.558;2023-08-06T10:29:56;2.30;;;1.45;;
18947;SDS011;9607;51.600;7.558;2023-08-06T10:32:49;2.42;;;1.77;;
18947;SDS011;9607;51.600;7.558;2023-08-06T10:35:30;3.97;;;1.90;;
18947;SDS011;9607;51.600;7.558;2023-08-06T10:37:58;3.45;;;2.20;;
18947;SDS011;9607;51.600;7.558;2023-08-06T10:40:26;2.63;;;1.85;;
18947;SDS011;9607;51.600;7.558;2023-08-06T10:42:55;3.25;;;1.77;;
18947;SDS011;9607;51.600;7.558;2023-08-06T10:45:25;2.45;;;1.70;;
18947;SDS011;9607;51.600;7.558;2023-08-06T10:47:53;2.38;;;1.48;;
18947;SDS011;9607;51.600;7.558;2023-08-06T10:50:21;2.30;;;1.38;;
18947;SDS011;9607;51.600;7.558;2023-08-06T10:52:48;2.65;;;1.60;;
18947;SDS011;9607;51.600;7.558;2023-08-06T10:55:21;2.28;;;1.73;;
18947;SDS011;9607;51.600;7.558;2023-08-06T10:57:50;3.20;;;1.55;;
18947;SDS011;9607;51.600;7.558;2023-08-06T11:00:18;2.17;;;1.70;;
18947;SDS011;9607;51.600;7.558;2023-08-06T11:02:46;2.92;;;1.30;;
18947;SDS011;9607;51.600;7.558;2023-08-06T11:05:14;2.08;;;1.48;;
18947;SDS011;9607;51.600;7.558;2023-08-06T11:07:40;2.17;;;1.73;;
18947;SDS011;9607;51.600;7.558;2023-08-06T11:10:08;3.30;;;1.75;;
18947;SDS011;9607;51.600;7.558;2023-08-06T11:12:36;3.70;;;1.55;;
18947;SDS011;9607;51.600;7.558;2023-08-06T11:15:04;2.42;;;1.52;;
18947;SDS011;9607;51.600;7.558;2023-08-06T11:17:33;1.38;;;1.27;;
18947;SDS011;9607;51.600;7.558;2023-08-06T11:20:01;2.45;;;1.58;;
18947;SDS011;9607;51.600;7.558;2023-08-06T11:22:28;3.63;;;2.33;;
18947;SDS011;9607;51.600;7.558;2023-08-06T11:24:55;6.13;;;2.78;;
18947;SDS011;9607;51.600;7.558;2023-08-06T11:27:22;3.60;;;3.30;;
18947;SDS011;9607;51.600;7.558;2023-08-06T11:29:49;4.88;;;3.53;;
18947;SDS011;9607;51.600;7.558;2023-08-06T11:32:16;2.70;;;2.50;;
18947;SDS011;9607;51.600;7.558;2023-08-06T11:34:44;3.03;;;2.78;;
18947;SDS011;9607;51.600;7.558;2023-08-06T11:37:11;2.90;;;2.70;;
18947;SDS011;9607;51.600;7.558;2023-08-06T11:39:38;3.80;;;2.83;;
18947;SDS011;9607;51.600;7.558;2023-08-06T11:42:10;2.60;;;2.40;;
18947;SDS011;9607;51.600;7.558;2023-08-06T11:44:38;3.92;;;3.05;;
18947;SDS011;9607;51.600;7.558;2023-08-06T11:47:11;4.63;;;3.25;;
18947;SDS011;9607;51.600;7.558;2023-08-06T11:49:40;2.92;;;2.72;;
18947;SDS011;9607;51.600;7.558;2023-08-06T11:52:20;3.80;;;3.47;;
18947;SDS011;9607;51.600;7.558;2023-08-06T11:54:59;3.50;;;3.20;;
18947;SDS011;9607;51.600;7.558;2023-08-06T11:57:28;3.70;;;3.40;;
18947;SDS011;9607;51.600;7.558;2023-08-06T11:59:58;4.22;;;3.83;;
18947;SDS011;9607;51.600;7.558;2023-08-06T12:02:28;3.75;;;3.25;;
18947;SDS011;9607;51.600;7.558;2023-08-06T12:05:02;4.07;;;3.75;;
18947;SDS011;9607;51.600;7.558;2023-08-06T12:07:32;3.72;;;3.40;;
18947;SDS011;9607;51.600;7.558;2023-08-06T12:10:02;3.00;;;2.80;;
18947;SDS011;9607;51.600;7.558;2023-08-06T12:12:30;3.35;;;3.05;;
18947;SDS011;9607;51.600;7.558;2023-08-06T12:14:57;2.90;;;2.70;;
18947;SDS011;9607;51.600;7.558;2023-08-06T12:17:24;2.75;;;2.55;;
18947;SDS011;9607;51.600;7.558;2023-08-06T12:19:51;2.85;;;2.47;;
18947;SDS011;9607;51.600;7.558;2023-08-06T12:22:18;2.85;;;2.65;;
18947;SDS011;9607;51.600;7.558;2023-08-06T12:24:46;2.42;;;2.22;;
18947;SDS011;9607;51.600;7.558;2023-08-06T12:27:13;2.58;;;2.38;;
18947;SDS011;9607;51.600;7.558;2023-08-06T12:29:41;2.10;;;1.90;;
18947;SDS011;9607;51.600;7.558;2023-08-06T12:32:09;1.98;;;1.75;;
18947;SDS011;9607;51.600;7.558;2023-08-06T12:34:37;2.00;;;1.85;;
18947;SDS011;9607;51.600;7.558;2023-08-06T12:37:04;2.05;;;1.90;;
18947;SDS011;9607;51.600;7.558;2023-08-06T12:39:31;2.92;;;1.63;;
18947;SDS011;9607;51.600;7.558;2023-08-06T12:41:59;3.05;;;2.10;;
18947;SDS011;9607;51.600;7.558;2023-08-06T12:44:26;2.33;;;2.00;;
18947;SDS011;9607;51.600;7.558;2023-08-06T12:46:53;3.03;;;2.28;;
18947;SDS011;9607;51.600;7.558;2023-08-06T12:49:20;2.20;;;2.00;;
18947;SDS011;9607;51.600;7.558;2023-08-06T12:51:47;2.90;;;1.88;;
18947;SDS011;9607;51.600;7.558;2023-08-06T12:54:16;5.70;;;2.90;;
18947;SDS011;9607;51.600;7.558;2023-08-06T12:56:43;3.78;;;3.47;;
18947;SDS011;9607;51.600;7.558;2023-08-06T12:59:11;4.95;;;4.55;;
18947;SDS011;9607;51.600;7.558;2023-08-06T13:01:40;6.32;;;5.72;;
18947;SDS011;9607;51.600;7.558;2023-08-06T13:04:07;5.35;;;4.95;;
18947;SDS011;9607;51.600;7.558;2023-08-06T13:06:34;5.88;;;5.25;;
18947;SDS011;9607;51.600;7.558;2023-08-06T13:09:02;5.47;;;5.07;;
18947;SDS011;9607;51.600;7.558;2023-08-06T13:11:29;4.93;;;4.55;;
18947;SDS011;9607;51.600;7.558;2023-08-06T13:13:58;4.10;;;3.70;;
18947;SDS011;9607;51.600;7.558;2023-08-06T13:16:31;3.42;;;3.08;;
18947;SDS011;9607;51.600;7.558;2023-08-06T13:18:57;3.03;;;2.70;;
18947;SDS011;9607;51.600;7.558;2023-08-06T13:21:30;3.58;;;3.28;;
18947;SDS011;9607;51.600;7.558;2023-08-06T13:23:58;3.40;;;3.10;;
18947;SDS011;9607;51.600;7.558;2023-08-06T13:26:25;3.30;;;3.10;;
18947;SDS011;9607;51.600;7.558;2023-08-06T13:28:51;2.67;;;2.47;;
18947;SDS011;9607;51.600;7.558;2023-08-06T13:31:18;2.67;;;2.47;;
18947;SDS011;9607;51.600;7.558;2023-08-06T13:33:46;2.90;;;2.05;;
18947;SDS011;9607;51.600;7.558;2023-08-06T13:36:14;2.03;;;1.80;;
18947;SDS011;9607;51.600;7.558;2023-08-06T13:38:41;3.25;;;1.83;;
18947;SDS011;9607;51.600;7.558;2023-08-06T13:41:08;5.82;;;1.73;;
18947;SDS011;9607;51.600;7.558;2023-08-06T13:43:35;1.55;;;1.05;;
18947;SDS011;9607;51.600;7.558;2023-08-06T13:46:02;1.38;;;0.90;;
18947;SDS011;9607;51.600;7.558;2023-08-06T13:48:29;0.90;;;0.90;;
18947;SDS011;9607;51.600;7.558;2023-08-06T13:50:57;1.27;;;0.98;;
18947;SDS011;9607;51.600;7.558;2023-08-06T13:53:24;1.00;;;0.80;;
18947;SDS011;9607;51.600;7.558;2023-08-06T13:55:54;1.30;;;1.00;;
18947;SDS011;9607;51.600;7.558;2023-08-06T13:58:22;1.40;;;1.30;;
18947;SDS011;9607;51.600;7.558;2023-08-06T14:00:48;2.17;;;1.60;;
18947;SDS011;9607;51.600;7.558;2023-08-06T14:03:18;2.90;;;1.80;;
18947;SDS011;9607;51.600;7.558;2023-08-06T14:05:45;2.30;;;2.08;;
18947;SDS011;9607;51.600;7.558;2023-08-06T14:08:13;2.65;;;1.80;;
18947;SDS011;9607;51.600;7.558;2023-08-06T14:10:40;4.05;;;1.90;;
18947;SDS011;9607;51.600;7.558;2023-08-06T14:13:07;2.03;;;1.75;;
18947;SDS011;9607;51.600;7.558;2023-08-06T14:15:33;4.47;;;1.90;;
18947;SDS011;9607;51.600;7.558;2023-08-06T14:18:00;2.03;;;1.55;;
18947;SDS011;9607;51.600;7.558;2023-08-06T14:20:27;2.05;;;1.60;;
18947;SDS011;9607;51.600;7.558;2023-08-06T14:22:54;2.95;;;1.80;;
18947;SDS011;9607;51.600;7.558;2023-08-06T14:25:22;2.70;;;1.55;;
18947;SDS011;9607;51.600;7.558;2023-08-06T14:27:49;1.70;;;1.60;;
18947;SDS011;9607;51.600;7.558;2023-08-06T14:30:16;2.70;;;2.05;;
18947;SDS011;9607;51.600;7.558;2023-08-06T14:32:43;2.10;;;1.90;;
18947;SDS011;9607;51.600;7.558;2023-08-06T14:35:10;2.42;;;1.70;;
18947;SDS011;9607;51.600;7.558;2023-08-06T14:37:37;1.95;;;1.83;;
18947;SDS011;9607;51.600;7.558;2023-08-06T14:40:04;1.80;;;1.70;;
18947;SDS011;9607;51.600;7.558;2023-08-06T14:42:33;2.45;;;2.17;;
18947;SDS011;9607;51.600;7.558;2023-08-06T14:45:00;2.05;;;1.95;;
18947;SDS011;9607;51.600;7.558;2023-08-06T14:47:27;2.38;;;2.17;;
18947;SDS011;9607;51.600;7.558;2023-08-06T14:49:54;2.30;;;2.10;;
18947;SDS011;9607;51.600;7.558;2023-08-06T14:52:20;2.97;;;2.38;;
18947;SDS011;9607;51.600;7.558;2023-08-06T14:54:47;1.98;;;1.85;;
18947;SDS011;9607;51.600;7.558;2023-08-06T14:57:17;2.10;;;1.90;;
18947;SDS011;9607;51.600;7.558;2023-08-06T14:59:45;1.60;;;1.50;;
18947;SDS011;9607;51.600;7.558;2023-08-06T15:02:12;1.58;;;1.42;;
18947;SDS011;9607;51.600;7.558;2023-08-06T15:04:39;1.70;;;1.60;;